Erie, PA

6:14 AM EDT on September 16, 2014 (GMT -0400)
Port Meadville | Change Station
CLOSE
Current Station
Airport
Location: Meadville,
Elevation: 1401 ft
Nearby Weather Stations

Elev 1401 ft 41.63 °N, 80.21 °W | Updated 21 minutes ago

Overcast
Overcast
51 °F
Feels Like 51 °F
N
0
Wind Variable Wind from North

Today
High -- | Low -- °F
--% Chance of Precip.
Yesterday
High -- | Low -- °F
Precip. -- in
7:01 AM 7:28 PM
Waning Gibbous, 47% visible
Pressure 30.08 in
Visibility 10.0 miles
Clouds Overcast 5500 ft
Dew Point 48 °F
Humidity 89%
Rainfall 0.14 in
Snow Depth Not available.
UV 0 out of 12
Pollen 3.80 out of 12
Air Quality Not available.
Flu Activity Not available.
METAR KGKJ 160953Z AUTO 00000KT 10SM OVC055 11/09 A3008 RMK AO2 SLP185 T01060089 TSNO

More Conditions Fewer Conditions

Pressure 30.08 in
Visibility 10.0 miles
Clouds Overcast 5500 ft
Dew Point 48 °F
Humidity 89%
Rainfall 0.14 in
Snow Depth Not available.
UV 0 out of 12
Pollen 3.80 out of 12
Air Quality Not available.
Flu Activity Not available.
METAR KGKJ 160953Z AUTO 00000KT 10SM OVC055 11/09 A3008 RMK AO2 SLP185 T01060089 TSNO

More Conditions Fewer Conditions

10-Day Weather Forecast

Almanac

Astronomy

Sep. 16, 2014 Rise Set
Actual Time 7:01 AM EDT 7:28 PM EDT
Civil Twilight 6:33 AM EDT 7:56 PM EDT
Nautical Twilight 6:00 AM EDT 8:29 PM EDT
Astronomical Twilight 5:26 AM EDT 9:03 PM EDT
Moon 12:05 AM EDT 2:55 PM EDT
Length of Visible Light 13h 22m
Length of Day
12h 26m
Tomorrow will be 2m 48s shorter.
Waning Gibbous, 47% of the Moon is Illuminated
Today
Waning Gibbous
Sep 24
New
Oct 1
First Quarter
Oct 8
Full
Oct 15
Last Quarter

Today's Extremes

State Highs State Lows

Community

WunderPhotos

Upload Photos

1,753,717 photos uploaded!

WunderBlogs® & News

Nearby

Snow Depth

Station Depth Elevation
No new snow has been reported.

Earthquake Activity

City Distance Mag. Time & Date
No recent earthquake activity has been reported nearby.
Minimum magnitude displayed is 2.5.

Coastal Water Temperatures

Place Temperature
Fairport, OH 64.9 °F
Buffalo, NY 68.0 °F

Nearby Weather Stations